sensor_id;sensor_type;location;lat;lon;timestamp;temperature;humidity
16823;DHT22;8528;49.976;11.858;2023-05-16T00:00:39;7.10;99.90
16823;DHT22;8528;49.976;11.858;2023-05-16T00:03:07;7.10;99.90
16823;DHT22;8528;49.976;11.858;2023-05-16T00:05:37;7.10;99.90
16823;DHT22;8528;49.976;11.858;2023-05-16T00:08:04;7.00;99.90
16823;DHT22;8528;49.976;11.858;2023-05-16T00:10:32;7.00;99.90
16823;DHT22;8528;49.976;11.858;2023-05-16T00:12:58;7.00;99.90
16823;DHT22;8528;49.976;11.858;2023-05-16T00:15:28;7.00;99.90
16823;DHT22;8528;49.976;11.858;2023-05-16T00:17:55;6.90;99.90
16823;DHT22;8528;49.976;11.858;2023-05-16T00:20:26;6.80;99.90
16823;DHT22;8528;49.976;11.858;2023-05-16T00:22:54;6.70;99.90
16823;DHT22;8528;49.976;11.858;2023-05-16T00:25:21;6.70;99.90
16823;DHT22;8528;49.976;11.858;2023-05-16T00:27:49;6.60;99.90
16823;DHT22;8528;49.976;11.858;2023-05-16T00:30:15;6.60;99.90
16823;DHT22;8528;49.976;11.858;2023-05-16T00:32:43;6.60;99.90
16823;DHT22;8528;49.976;11.858;2023-05-16T00:35:09;6.50;99.90
16823;DHT22;8528;49.976;11.858;2023-05-16T00:37:38;6.50;99.90
16823;DHT22;8528;49.976;11.858;2023-05-16T00:40:06;6.50;99.90
16823;DHT22;8528;49.976;11.858;2023-05-16T00:42:33;6.40;99.90
16823;DHT22;8528;49.976;11.858;2023-05-16T00:45:00;6.40;99.90
16823;DHT22;8528;49.976;11.858;2023-05-16T00:47:26;6.40;99.90
16823;DHT22;8528;49.976;11.858;2023-05-16T00:49:54;6.40;99.90
16823;DHT22;8528;49.976;11.858;2023-05-16T00:52:21;6.40;99.90
16823;DHT22;8528;49.976;11.858;2023-05-16T00:54:49;6.50;99.90
16823;DHT22;8528;49.976;11.858;2023-05-16T00:57:16;6.50;99.90
16823;DHT22;8528;49.976;11.858;2023-05-16T00:59:45;6.50;99.90
16823;DHT22;8528;49.976;11.858;2023-05-16T01:02:13;6.60;99.90
16823;DHT22;8528;49.976;11.858;2023-05-16T01:04:40;6.60;99.90
16823;DHT22;8528;49.976;11.858;2023-05-16T01:07:08;6.70;99.90
16823;DHT22;8528;49.976;11.858;2023-05-16T01:09:35;6.70;99.90
16823;DHT22;8528;49.976;11.858;2023-05-16T01:15:07;6.80;99.90
16823;DHT22;8528;49.976;11.858;2023-05-16T01:17:49;6.80;99.90
16823;DHT22;8528;49.976;11.858;2023-05-16T01:23:05;6.90;99.90
16823;DHT22;8528;49.976;11.858;2023-05-16T01:28:26;6.90;99.90
16823;DHT22;8528;49.976;11.858;2023-05-16T01:30:54;6.90;99.90
16823;DHT22;8528;49.976;11.858;2023-05-16T01:33:20;6.90;99.90
16823;DHT22;8528;49.976;11.858;2023-05-16T01:38:35;6.80;99.90
16823;DHT22;8528;49.976;11.858;2023-05-16T01:43:51;6.80;99.90
16823;DHT22;8528;49.976;11.858;2023-05-16T01:46:25;6.70;99.90
16823;DHT22;8528;49.976;11.858;2023-05-16T01:49:16;6.60;99.90
16823;DHT22;8528;49.976;11.858;2023-05-16T01:52:07;6.50;99.90
16823;DHT22;8528;49.976;11.858;2023-05-16T01:54:37;6.40;99.90
16823;DHT22;8528;49.976;11.858;2023-05-16T01:57:06;6.30;99.90
16823;DHT22;8528;49.976;11.858;2023-05-16T01:59:34;6.30;99.90
16823;DHT22;8528;49.976;11.858;2023-05-16T02:02:02;6.20;99.90
16823;DHT22;8528;49.976;11.858;2023-05-16T02:04:29;6.20;99.90
16823;DHT22;8528;49.976;11.858;2023-05-16T02:06:56;6.10;99.90
16823;DHT22;8528;49.976;11.858;2023-05-16T02:09:23;6.00;99.90
16823;DHT22;8528;49.976;11.858;2023-05-16T02:11:51;6.00;99.90
16823;DHT22;8528;49.976;11.858;2023-05-16T02:14:18;6.00;99.90
16823;DHT22;8528;49.976;11.858;2023-05-16T02:16:46;6.10;99.90
16823;DHT22;8528;49.976;11.858;2023-05-16T02:19:13;6.10;99.90
16823;DHT22;8528;49.976;11.858;2023-05-16T02:21:40;6.10;99.90
16823;DHT22;8528;49.976;11.858;2023-05-16T02:24:07;6.00;99.90
16823;DHT22;8528;49.976;11.858;2023-05-16T02:26:33;6.00;99.90
16823;DHT22;8528;49.976;11.858;2023-05-16T02:29:00;5.90;99.90
16823;DHT22;8528;49.976;11.858;2023-05-16T02:31:31;5.80;99.90
16823;DHT22;8528;49.976;11.858;2023-05-16T02:34:00;5.70;99.90
16823;DHT22;8528;49.976;11.858;2023-05-16T02:36:27;5.60;99.90
16823;DHT22;8528;49.976;11.858;2023-05-16T02:38:54;5.60;99.90
16823;DHT22;8528;49.976;11.858;2023-05-16T02:41:22;5.60;99.90
16823;DHT22;8528;49.976;11.858;2023-05-16T02:43:49;5.60;99.90
16823;DHT22;8528;49.976;11.858;2023-05-16T02:48:51;5.70;99.90
16823;DHT22;8528;49.976;11.858;2023-05-16T02:51:20;5.70;99.90
16823;DHT22;8528;49.976;11.858;2023-05-16T02:53:47;5.70;99.90
16823;DHT22;8528;49.976;11.858;2023-05-16T02:56:14;5.70;99.90
16823;DHT22;8528;49.976;11.858;2023-05-16T02:58:41;5.70;99.90
16823;DHT22;8528;49.976;11.858;2023-05-16T03:01:09;5.60;99.90
16823;DHT22;8528;49.976;11.858;2023-05-16T03:03:36;5.60;99.90
16823;DHT22;8528;49.976;11.858;2023-05-16T03:06:03;5.50;99.90
16823;DHT22;8528;49.976;11.858;2023-05-16T03:08:30;5.50;99.90
16823;DHT22;8528;49.976;11.858;2023-05-16T03:10:57;5.50;99.90
16823;DHT22;8528;49.976;11.858;2023-05-16T03:13:24;5.50;99.90
16823;DHT22;8528;49.976;11.858;2023-05-16T03:15:51;5.40;99.90
16823;DHT22;8528;49.976;11.858;2023-05-16T03:18:19;5.40;99.90
16823;DHT22;8528;49.976;11.858;2023-05-16T03:20:45;5.40;99.90
16823;DHT22;8528;49.976;11.858;2023-05-16T03:23:13;5.40;99.90
16823;DHT22;8528;49.976;11.858;2023-05-16T03:25:39;5.40;99.90
16823;DHT22;8528;49.976;11.858;2023-05-16T03:28:11;5.30;99.90
16823;DHT22;8528;49.976;11.858;2023-05-16T03:30:40;5.30;99.90
16823;DHT22;8528;49.976;11.858;2023-05-16T03:33:08;5.30;99.90
16823;DHT22;8528;49.976;11.858;2023-05-16T03:35:35;5.30;99.90
16823;DHT22;8528;49.976;11.858;2023-05-16T03:38:02;5.30;99.90
16823;DHT22;8528;49.976;11.858;2023-05-16T03:40:29;5.40;99.90
16823;DHT22;8528;49.976;11.858;2023-05-16T03:42:56;5.40;99.90
16823;DHT22;8528;49.976;11.858;2023-05-16T03:45:23;5.50;99.90
16823;DHT22;8528;49.976;11.858;2023-05-16T03:47:50;5.40;99.90
16823;DHT22;8528;49.976;11.858;2023-05-16T03:50:17;5.50;99.90
16823;DHT22;8528;49.976;11.858;2023-05-16T03:52:44;5.50;99.90
16823;DHT22;8528;49.976;11.858;2023-05-16T03:55:11;5.60;99.90
16823;DHT22;8528;49.976;11.858;2023-05-16T03:57:40;5.60;99.90
16823;DHT22;8528;49.976;11.858;2023-05-16T04:00:10;5.60;99.90
16823;DHT22;8528;49.976;11.858;2023-05-16T04:02:38;5.60;99.90
16823;DHT22;8528;49.976;11.858;2023-05-16T04:05:10;5.70;99.90
16823;DHT22;8528;49.976;11.858;2023-05-16T04:07:37;5.80;99.90
16823;DHT22;8528;49.976;11.858;2023-05-16T04:10:04;5.90;99.90
16823;DHT22;8528;49.976;11.858;2023-05-16T04:12:32;6.00;99.90
16823;DHT22;8528;49.976;11.858;2023-05-16T04:14:58;6.10;99.90
16823;DHT22;8528;49.976;11.858;2023-05-16T04:17:25;6.20;99.90
16823;DHT22;8528;49.976;11.858;2023-05-16T04:19:52;6.30;99.90
16823;DHT22;8528;49.976;11.858;2023-05-16T04:22:23;6.40;99.90
16823;DHT22;8528;49.976;11.858;2023-05-16T04:24:50;6.70;99.90
16823;DHT22;8528;49.976;11.858;2023-05-16T04:27:17;6.90;99.90
16823;DHT22;8528;49.976;11.858;2023-05-16T04:29:44;7.10;99.90
16823;DHT22;8528;49.976;11.858;2023-05-16T04:32:10;7.30;99.90
16823;DHT22;8528;49.976;11.858;2023-05-16T04:34:38;7.70;99.90
16823;DHT22;8528;49.976;11.858;2023-05-16T04:37:06;8.20;99.90
16823;DHT22;8528;49.976;11.858;2023-05-16T04:39:35;8.70;99.90
16823;DHT22;8528;49.976;11.858;2023-05-16T04:42:02;9.20;99.90
16823;DHT22;8528;49.976;11.858;2023-05-16T04:44:30;9.60;99.90
16823;DHT22;8528;49.976;11.858;2023-05-16T04:46:57;10.00;99.90
16823;DHT22;8528;49.976;11.858;2023-05-16T04:49:24;10.50;99.90
16823;DHT22;8528;49.976;11.858;2023-05-16T04:51:52;11.10;99.90
16823;DHT22;8528;49.976;11.858;2023-05-16T04:54:18;11.70;99.90
16823;DHT22;8528;49.976;11.858;2023-05-16T04:56:45;12.30;99.90
16823;DHT22;8528;49.976;11.858;2023-05-16T04:59:12;13.00;99.90
16823;DHT22;8528;49.976;11.858;2023-05-16T05:01:39;13.60;99.90
16823;DHT22;8528;49.976;11.858;2023-05-16T05:04:06;14.00;99.90
16823;DHT22;8528;49.976;11.858;2023-05-16T05:06:33;14.40;99.90
16823;DHT22;8528;49.976;11.858;2023-05-16T05:09:00;15.00;99.90
16823;DHT22;8528;49.976;11.858;2023-05-16T05:11:27;15.60;99.90
16823;DHT22;8528;49.976;11.858;2023-05-16T05:13:54;16.10;99.90
16823;DHT22;8528;49.976;11.858;2023-05-16T05:16:21;16.50;99.90
16823;DHT22;8528;49.976;11.858;2023-05-16T05:18:48;16.70;99.90
16823;DHT22;8528;49.976;11.858;2023-05-16T05:21:15;16.70;99.90
16823;DHT22;8528;49.976;11.858;2023-05-16T05:23:41;16.80;99.90
16823;DHT22;8528;49.976;11.858;2023-05-16T05:26:08;16.60;99.90
16823;DHT22;8528;49.976;11.858;2023-05-16T05:28:35;16.40;99.90
16823;DHT22;8528;49.976;11.858;2023-05-16T05:31:03;16.30;99.90
16823;DHT22;8528;49.976;11.858;2023-05-16T05:33:31;16.50;99.90
16823;DHT22;8528;49.976;11.858;2023-05-16T05:35:58;17.10;99.90
16823;DHT22;8528;49.976;11.858;2023-05-16T05:38:27;17.80;99.90
16823;DHT22;8528;49.976;11.858;2023-05-16T05:40:54;18.30;99.90
16823;DHT22;8528;49.976;11.858;2023-05-16T05:43:21;18.80;99.90
16823;DHT22;8528;49.976;11.858;2023-05-16T05:45:48;19.40;97.80
16823;DHT22;8528;49.976;11.858;2023-05-16T05:48:15;19.50;95.40
16823;DHT22;8528;49.976;11.858;2023-05-16T05:50:42;19.80;93.90
16823;DHT22;8528;49.976;11.858;2023-05-16T05:53:08;20.10;93.40
16823;DHT22;8528;49.976;11.858;2023-05-16T05:55:35;20.30;92.30
16823;DHT22;8528;49.976;11.858;2023-05-16T05:58:02;20.60;91.20
16823;DHT22;8528;49.976;11.858;2023-05-16T06:00:32;20.90;90.40
16823;DHT22;8528;49.976;11.858;2023-05-16T06:02:59;20.90;90.20
16823;DHT22;8528;49.976;11.858;2023-05-16T06:05:26;20.80;89.10
16823;DHT22;8528;49.976;11.858;2023-05-16T06:07:53;20.60;88.20
16823;DHT22;8528;49.976;11.858;2023-05-16T06:10:20;19.40;90.00
16823;DHT22;8528;49.976;11.858;2023-05-16T06:12:47;18.50;91.40
16823;DHT22;8528;49.976;11.858;2023-05-16T06:15:14;18.00;92.90
16823;DHT22;8528;49.976;11.858;2023-05-16T06:17:41;17.60;92.90
16823;DHT22;8528;49.976;11.858;2023-05-16T06:20:08;17.30;93.70
16823;DHT22;8528;49.976;11.858;2023-05-16T06:22:34;17.10;95.60
16823;DHT22;8528;49.976;11.858;2023-05-16T06:25:01;16.80;95.80
16823;DHT22;8528;49.976;11.858;2023-05-16T06:27:28;16.40;96.70
16823;DHT22;8528;49.976;11.858;2023-05-16T06:29:55;16.30;97.40
16823;DHT22;8528;49.976;11.858;2023-05-16T06:32:22;16.30;96.30
16823;DHT22;8528;49.976;11.858;2023-05-16T06:34:49;16.90;96.50
16823;DHT22;8528;49.976;11.858;2023-05-16T06:37:16;17.70;95.10
16823;DHT22;8528;49.976;11.858;2023-05-16T06:39:43;18.40;93.50
16823;DHT22;8528;49.976;11.858;2023-05-16T06:42:10;19.20;93.00
16823;DHT22;8528;49.976;11.858;2023-05-16T06:44:37;19.80;91.30
16823;DHT22;8528;49.976;11.858;2023-05-16T06:47:04;20.20;88.80
16823;DHT22;8528;49.976;11.858;2023-05-16T06:49:31;20.20;87.00
16823;DHT22;8528;49.976;11.858;2023-05-16T06:51:58;19.90;85.60
16823;DHT22;8528;49.976;11.858;2023-05-16T06:54:25;19.70;83.80
16823;DHT22;8528;49.976;11.858;2023-05-16T06:56:52;19.50;83.80
16823;DHT22;8528;49.976;11.858;2023-05-16T06:59:19;19.60;83.40
16823;DHT22;8528;49.976;11.858;2023-05-16T07:01:46;19.70;79.20
16823;DHT22;8528;49.976;11.858;2023-05-16T07:04:13;20.10;77.40
16823;DHT22;8528;49.976;11.858;2023-05-16T07:06:41;20.40;79.40
16823;DHT22;8528;49.976;11.858;2023-05-16T07:09:08;20.90;73.50
16823;DHT22;8528;49.976;11.858;2023-05-16T07:11:35;21.50;71.70
16823;DHT22;8528;49.976;11.858;2023-05-16T07:14:01;22.20;70.50
16823;DHT22;8528;49.976;11.858;2023-05-16T07:16:28;22.40;65.80
16823;DHT22;8528;49.976;11.858;2023-05-16T07:18:55;22.50;64.40
16823;DHT22;8528;49.976;11.858;2023-05-16T07:21:22;22.60;63.70
16823;DHT22;8528;49.976;11.858;2023-05-16T07:23:49;22.80;65.40
16823;DHT22;8528;49.976;11.858;2023-05-16T07:26:16;22.40;65.90
16823;DHT22;8528;49.976;11.858;2023-05-16T07:28:43;22.90;66.40
16823;DHT22;8528;49.976;11.858;2023-05-16T07:31:10;23.90;61.40
16823;DHT22;8528;49.976;11.858;2023-05-16T07:33:37;25.30;58.20
16823;DHT22;8528;49.976;11.858;2023-05-16T07:36:04;26.00;55.40
16823;DHT22;8528;49.976;11.858;2023-05-16T07:38:42;26.60;52.00
16823;DHT22;8528;49.976;11.858;2023-05-16T07:41:09;25.50;52.90
16823;DHT22;8528;49.976;11.858;2023-05-16T07:43:36;24.80;54.90
16823;DHT22;8528;49.976;11.858;2023-05-16T07:46:04;24.00;56.20
16823;DHT22;8528;49.976;11.858;2023-05-16T07:48:31;22.30;59.20
16823;DHT22;8528;49.976;11.858;2023-05-16T07:50:58;21.70;62.70
16823;DHT22;8528;49.976;11.858;2023-05-16T07:53:25;21.00;64.30
16823;DHT22;8528;49.976;11.858;2023-05-16T07:55:52;20.70;65.80
16823;DHT22;8528;49.976;11.858;2023-05-16T07:58:19;20.60;66.40
16823;DHT22;8528;49.976;11.858;2023-05-16T08:00:46;20.60;67.40
16823;DHT22;8528;49.976;11.858;2023-05-16T08:03:13;21.10;68.50
16823;DHT22;8528;49.976;11.858;2023-05-16T08:05:40;21.30;67.00
16823;DHT22;8528;49.976;11.858;2023-05-16T08:08:07;21.40;66.30
16823;DHT22;8528;49.976;11.858;2023-05-16T08:10:34;21.20;66.00
16823;DHT22;8528;49.976;11.858;2023-05-16T08:13:01;21.00;66.20
16823;DHT22;8528;49.976;11.858;2023-05-16T08:15:28;21.00;68.20
16823;DHT22;8528;49.976;11.858;2023-05-16T08:17:57;20.80;68.60
16823;DHT22;8528;49.976;11.858;2023-05-16T08:20:25;20.60;70.00
16823;DHT22;8528;49.976;11.858;2023-05-16T08:22:52;20.40;69.30
16823;DHT22;8528;49.976;11.858;2023-05-16T08:25:20;20.10;69.10
16823;DHT22;8528;49.976;11.858;2023-05-16T08:27:48;19.60;70.80
16823;DHT22;8528;49.976;11.858;2023-05-16T08:30:19;19.20;71.70
16823;DHT22;8528;49.976;11.858;2023-05-16T08:32:46;19.20;72.80
16823;DHT22;8528;49.976;11.858;2023-05-16T08:35:13;19.70;71.60
16823;DHT22;8528;49.976;11.858;2023-05-16T08:37:40;19.60;72.80
16823;DHT22;8528;49.976;11.858;2023-05-16T08:40:08;19.60;71.00
16823;DHT22;8528;49.976;11.858;2023-05-16T08:42:37;19.60;72.40
16823;DHT22;8528;49.976;11.858;2023-05-16T08:45:04;18.60;72.70
16823;DHT22;8528;49.976;11.858;2023-05-16T08:47:32;17.80;75.80
16823;DHT22;8528;49.976;11.858;2023-05-16T08:50:02;17.90;76.10
16823;DHT22;8528;49.976;11.858;2023-05-16T08:52:30;18.50;74.60
16823;DHT22;8528;49.976;11.858;2023-05-16T08:55:03;19.40;73.10
16823;DHT22;8528;49.976;11.858;2023-05-16T08:57:38;21.80;68.40
16823;DHT22;8528;49.976;11.858;2023-05-16T09:00:07;23.60;61.10
16823;DHT22;8528;49.976;11.858;2023-05-16T09:02:40;24.20;58.30
16823;DHT22;8528;49.976;11.858;2023-05-16T09:05:08;24.50;58.10
16823;DHT22;8528;49.976;11.858;2023-05-16T09:07:36;24.20;59.70
16823;DHT22;8528;49.976;11.858;2023-05-16T09:10:04;23.20;60.10
16823;DHT22;8528;49.976;11.858;2023-05-16T09:12:33;22.30;62.40
16823;DHT22;8528;49.976;11.858;2023-05-16T09:15:05;21.70;66.50
16823;DHT22;8528;49.976;11.858;2023-05-16T09:17:42;22.00;66.10
16823;DHT22;8528;49.976;11.858;2023-05-16T09:20:11;22.00;63.90
16823;DHT22;8528;49.976;11.858;2023-05-16T09:22:39;21.50;65.90
16823;DHT22;8528;49.976;11.858;2023-05-16T09:25:18;22.20;66.00
16823;DHT22;8528;49.976;11.858;2023-05-16T09:27:58;23.40;61.40
16823;DHT22;8528;49.976;11.858;2023-05-16T09:30:32;23.90;57.40
16823;DHT22;8528;49.976;11.858;2023-05-16T09:33:00;24.00;59.10
16823;DHT22;8528;49.976;11.858;2023-05-16T09:35:27;25.40;55.70
16823;DHT22;8528;49.976;11.858;2023-05-16T09:37:57;25.70;55.40
16823;DHT22;8528;49.976;11.858;2023-05-16T09:40:24;26.30;53.40
16823;DHT22;8528;49.976;11.858;2023-05-16T09:43:05;27.20;51.20
16823;DHT22;8528;49.976;11.858;2023-05-16T09:45:34;26.60;53.00
16823;DHT22;8528;49.976;11.858;2023-05-16T09:48:04;26.30;53.40
16823;DHT22;8528;49.976;11.858;2023-05-16T09:50:33;26.10;52.60
16823;DHT22;8528;49.976;11.858;2023-05-16T09:53:01;26.00;53.50
16823;DHT22;8528;49.976;11.858;2023-05-16T09:55:28;26.30;52.00
16823;DHT22;8528;49.976;11.858;2023-05-16T09:57:55;26.80;50.40
16823;DHT22;8528;49.976;11.858;2023-05-16T10:00:31;27.40;51.40
16823;DHT22;8528;49.976;11.858;2023-05-16T10:02:59;28.30;47.80
16823;DHT22;8528;49.976;11.858;2023-05-16T10:05:31;29.10;46.50
16823;DHT22;8528;49.976;11.858;2023-05-16T10:07:58;28.60;46.90
16823;DHT22;8528;49.976;11.858;2023-05-16T10:10:28;27.20;48.40
16823;DHT22;8528;49.976;11.858;2023-05-16T10:12:57;25.20;50.60
16823;DHT22;8528;49.976;11.858;2023-05-16T10:15:26;24.70;53.50
16823;DHT22;8528;49.976;11.858;2023-05-16T10:17:56;25.50;52.70
16823;DHT22;8528;49.976;11.858;2023-05-16T10:20:26;26.30;48.50
16823;DHT22;8528;49.976;11.858;2023-05-16T10:22:54;26.40;50.20
16823;DHT22;8528;49.976;11.858;2023-05-16T10:27:51;25.90;50.20
16823;DHT22;8528;49.976;11.858;2023-05-16T10:30:18;25.80;51.10
16823;DHT22;8528;49.976;11.858;2023-05-16T10:32:45;26.40;48.60
16823;DHT22;8528;49.976;11.858;2023-05-16T10:35:13;26.50;49.30
16823;DHT22;8528;49.976;11.858;2023-05-16T10:37:40;26.30;50.00
16823;DHT22;8528;49.976;11.858;2023-05-16T10:40:08;26.30;48.70
16823;DHT22;8528;49.976;11.858;2023-05-16T10:42:35;24.80;50.50
16823;DHT22;8528;49.976;11.858;2023-05-16T10:48:00;22.80;56.90
16823;DHT22;8528;49.976;11.858;2023-05-16T10:53:15;21.90;56.60
16823;DHT22;8528;49.976;11.858;2023-05-16T10:56:03;21.70;58.70
16823;DHT22;8528;49.976;11.858;2023-05-16T11:01:16;21.90;58.50
16823;DHT22;8528;49.976;11.858;2023-05-16T11:06:27;21.90;59.00
16823;DHT22;8528;49.976;11.858;2023-05-16T11:14:07;22.50;55.70
16823;DHT22;8528;49.976;11.858;2023-05-16T11:16:35;22.70;57.20
16823;DHT22;8528;49.976;11.858;2023-05-16T11:19:06;23.10;56.30
16823;DHT22;8528;49.976;11.858;2023-05-16T11:24:33;21.70;57.50
16823;DHT22;8528;49.976;11.858;2023-05-16T11:27:02;21.00;58.70
16823;DHT22;8528;49.976;11.858;2023-05-16T11:29:35;21.40;58.30
16823;DHT22;8528;49.976;11.858;2023-05-16T11:32:04;22.40;56.60
16823;DHT22;8528;49.976;11.858;2023-05-16T11:34:35;22.80;57.50
16823;DHT22;8528;49.976;11.858;2023-05-16T11:37:03;24.00;56.60
16823;DHT22;8528;49.976;11.858;2023-05-16T11:39:31;25.80;50.70
16823;DHT22;8528;49.976;11.858;2023-05-16T11:41:58;26.00;51.70
16823;DHT22;8528;49.976;11.858;2023-05-16T11:44:25;25.40;52.00
16823;DHT22;8528;49.976;11.858;2023-05-16T11:46:52;24.50;53.40
16823;DHT22;8528;49.976;11.858;2023-05-16T11:49:20;23.50;54.20
16823;DHT22;8528;49.976;11.858;2023-05-16T11:51:47;22.60;55.50
16823;DHT22;8528;49.976;11.858;2023-05-16T11:54:15;23.50;55.40
16823;DHT22;8528;49.976;11.858;2023-05-16T11:56:42;24.20;54.10
16823;DHT22;8528;49.976;11.858;2023-05-16T11:59:09;24.60;53.30
16823;DHT22;8528;49.976;11.858;2023-05-16T12:01:38;24.50;52.20
16823;DHT22;8528;49.976;11.858;2023-05-16T12:04:11;24.10;53.80
16823;DHT22;8528;49.976;11.858;2023-05-16T12:06:40;23.10;54.20
16823;DHT22;8528;49.976;11.858;2023-05-16T12:09:13;22.10;56.60
16823;DHT22;8528;49.976;11.858;2023-05-16T12:11:44;22.30;57.60
16823;DHT22;8528;49.976;11.858;2023-05-16T12:14:11;22.30;57.50
16823;DHT22;8528;49.976;11.858;2023-05-16T12:16:39;22.00;56.80
16823;DHT22;8528;49.976;11.858;2023-05-16T12:19:12;22.10;56.70
16823;DHT22;8528;49.976;11.858;2023-05-16T12:21:39;22.00;57.40
16823;DHT22;8528;49.976;11.858;2023-05-16T12:24:09;22.80;56.40
16823;DHT22;8528;49.976;11.858;2023-05-16T12:26:39;24.10;53.60
16823;DHT22;8528;49.976;11.858;2023-05-16T12:29:06;23.90;53.50
16823;DHT22;8528;49.976;11.858;2023-05-16T12:31:38;24.90;52.10
16823;DHT22;8528;49.976;11.858;2023-05-16T12:34:17;24.20;52.10
16823;DHT22;8528;49.976;11.858;2023-05-16T12:36:44;23.20;53.50
16823;DHT22;8528;49.976;11.858;2023-05-16T12:39:12;22.20;55.70
16823;DHT22;8528;49.976;11.858;2023-05-16T12:41:40;21.50;58.40
16823;DHT22;8528;49.976;11.858;2023-05-16T12:44:18;21.40;58.60
16823;DHT22;8528;49.976;11.858;2023-05-16T12:46:48;22.30;58.10
16823;DHT22;8528;49.976;11.858;2023-05-16T12:49:20;22.70;56.70
16823;DHT22;8528;49.976;11.858;2023-05-16T12:51:53;22.80;56.40
16823;DHT22;8528;49.976;11.858;2023-05-16T12:54:21;22.30;58.00
16823;DHT22;8528;49.976;11.858;2023-05-16T12:56:48;22.30;58.30
16823;DHT22;8528;49.976;11.858;2023-05-16T12:59:16;22.00;58.50
16823;DHT22;8528;49.976;11.858;2023-05-16T13:01:44;21.50;59.70
16823;DHT22;8528;49.976;11.858;2023-05-16T13:04:12;20.60;60.20
16823;DHT22;8528;49.976;11.858;2023-05-16T13:06:45;20.10;61.10
16823;DHT22;8528;49.976;11.858;2023-05-16T13:09:25;19.50;62.20
16823;DHT22;8528;49.976;11.858;2023-05-16T13:11:58;19.00;64.90
16823;DHT22;8528;49.976;11.858;2023-05-16T13:14:25;19.00;64.10
16823;DHT22;8528;49.976;11.858;2023-05-16T13:16:52;18.80;66.00
16823;DHT22;8528;49.976;11.858;2023-05-16T13:19:19;18.40;67.60
16823;DHT22;8528;49.976;11.858;2023-05-16T13:21:48;17.90;67.90
16823;DHT22;8528;49.976;11.858;2023-05-16T13:24:15;17.90;68.30
16823;DHT22;8528;49.976;11.858;2023-05-16T13:26:44;17.50;68.90
16823;DHT22;8528;49.976;11.858;2023-05-16T13:29:11;17.30;69.70
16823;DHT22;8528;49.976;11.858;2023-05-16T13:31:38;16.80;70.80
16823;DHT22;8528;49.976;11.858;2023-05-16T13:34:05;16.30;73.10
16823;DHT22;8528;49.976;11.858;2023-05-16T13:36:32;16.00;74.40
16823;DHT22;8528;49.976;11.858;2023-05-16T13:39:19;15.90;77.30
16823;DHT22;8528;49.976;11.858;2023-05-16T13:41:45;15.60;77.50
16823;DHT22;8528;49.976;11.858;2023-05-16T13:44:15;15.70;78.70
16823;DHT22;8528;49.976;11.858;2023-05-16T13:46:42;15.30;78.70
16823;DHT22;8528;49.976;11.858;2023-05-16T13:49:09;15.20;79.80
16823;DHT22;8528;49.976;11.858;2023-05-16T13:51:36;14.90;80.10
16823;DHT22;8528;49.976;11.858;2023-05-16T13:54:03;14.70;82.00
16823;DHT22;8528;49.976;11.858;2023-05-16T13:56:30;14.30;84.40
16823;DHT22;8528;49.976;11.858;2023-05-16T13:58:56;14.10;86.40
16823;DHT22;8528;49.976;11.858;2023-05-16T14:01:32;13.90;88.00
16823;DHT22;8528;49.976;11.858;2023-05-16T14:03:59;13.70;89.20
16823;DHT22;8528;49.976;11.858;2023-05-16T14:06:26;13.50;90.70
16823;DHT22;8528;49.976;11.858;2023-05-16T14:08:53;13.40;91.70
16823;DHT22;8528;49.976;11.858;2023-05-16T14:11:20;13.30;92.70
16823;DHT22;8528;49.976;11.858;2023-05-16T14:13:55;13.20;94.00
16823;DHT22;8528;49.976;11.858;2023-05-16T14:16:22;13.10;95.10
16823;DHT22;8528;49.976;11.858;2023-05-16T14:18:49;12.90;96.50
16823;DHT22;8528;49.976;11.858;2023-05-16T14:21:15;12.80;98.60
16823;DHT22;8528;49.976;11.858;2023-05-16T14:23:43;12.60;99.90
16823;DHT22;8528;49.976;11.858;2023-05-16T14:26:10;12.40;99.90
16823;DHT22;8528;49.976;11.858;2023-05-16T14:28:36;12.30;99.90
16823;DHT22;8528;49.976;11.858;2023-05-16T14:31:04;12.20;99.90
16823;DHT22;8528;49.976;11.858;2023-05-16T14:33:31;12.30;99.90
16823;DHT22;8528;49.976;11.858;2023-05-16T14:35:58;12.30;99.90
16823;DHT22;8528;49.976;11.858;2023-05-16T14:38:25;12.20;99.90
16823;DHT22;8528;49.976;11.858;2023-05-16T14:40:53;12.20;99.90
16823;DHT22;8528;49.976;11.858;2023-05-16T14:43:20;12.20;99.90
16823;DHT22;8528;49.976;11.858;2023-05-16T14:45:47;12.10;99.90
16823;DHT22;8528;49.976;11.858;2023-05-16T14:48:14;12.10;99.90
16823;DHT22;8528;49.976;11.858;2023-05-16T14:50:42;12.10;99.90
16823;DHT22;8528;49.976;11.858;2023-05-16T14:53:09;12.00;99.90
16823;DHT22;8528;49.976;11.858;2023-05-16T14:55:36;12.00;99.90
16823;DHT22;8528;49.976;11.858;2023-05-16T14:58:04;11.90;99.90
16823;DHT22;8528;49.976;11.858;2023-05-16T15:00:31;11.80;99.90
16823;DHT22;8528;49.976;11.858;2023-05-16T15:02:58;11.80;99.90
16823;DHT22;8528;49.976;11.858;2023-05-16T15:05:25;11.90;99.90
16823;DHT22;8528;49.976;11.858;2023-05-16T15:07:51;12.00;99.90
16823;DHT22;8528;49.976;11.858;2023-05-16T15:10:18;12.30;99.90
16823;DHT22;8528;49.976;11.858;2023-05-16T15:12:45;12.30;99.90
16823;DHT22;8528;49.976;11.858;2023-05-16T15:15:12;12.30;99.90
16823;DHT22;8528;49.976;11.858;2023-05-16T15:17:42;12.40;99.90
16823;DHT22;8528;49.976;11.858;2023-05-16T15:20:10;12.40;99.90
16823;DHT22;8528;49.976;11.858;2023-05-16T15:22:40;12.60;99.90
16823;DHT22;8528;49.976;11.858;2023-05-16T15:25:08;12.50;99.90
16823;DHT22;8528;49.976;11.858;2023-05-16T15:27:35;12.30;99.90
16823;DHT22;8528;49.976;11.858;2023-05-16T15:30:02;12.10;99.90
16823;DHT22;8528;49.976;11.858;2023-05-16T15:32:29;11.90;99.90
16823;DHT22;8528;49.976;11.858;2023-05-16T15:34:56;11.70;99.90
16823;DHT22;8528;49.976;11.858;2023-05-16T15:37:23;11.50;99.90
16823;DHT22;8528;49.976;11.858;2023-05-16T15:39:50;11.30;99.90
16823;DHT22;8528;49.976;11.858;2023-05-16T15:42:17;11.30;99.90
16823;DHT22;8528;49.976;11.858;2023-05-16T15:44:46;11.40;99.90
16823;DHT22;8528;49.976;11.858;2023-05-16T15:47:13;11.50;99.90
16823;DHT22;8528;49.976;11.858;2023-05-16T15:49:39;11.70;99.90
16823;DHT22;8528;49.976;11.858;2023-05-16T15:52:07;11.80;99.90
16823;DHT22;8528;49.976;11.858;2023-05-16T15:54:35;12.00;99.90
16823;DHT22;8528;49.976;11.858;2023-05-16T15:57:02;12.30;99.90
16823;DHT22;8528;49.976;11.858;2023-05-16T15:59:29;12.60;99.90
16823;DHT22;8528;49.976;11.858;2023-05-16T16:01:56;12.80;99.90
16823;DHT22;8528;49.976;11.858;2023-05-16T16:04:23;12.90;99.90
16823;DHT22;8528;49.976;11.858;2023-05-16T16:06:50;13.10;99.90
16823;DHT22;8528;49.976;11.858;2023-05-16T16:09:16;13.40;99.90
16823;DHT22;8528;49.976;11.858;2023-05-16T16:11:43;13.50;99.90
16823;DHT22;8528;49.976;11.858;2023-05-16T16:14:10;13.50;99.90
16823;DHT22;8528;49.976;11.858;2023-05-16T16:16:37;13.40;99.90
16823;DHT22;8528;49.976;11.858;2023-05-16T16:19:06;13.50;99.90